sensor_id;sensor_type;location;lat;lon;timestamp;P1;durP1;ratioP1;P2;durP2;ratioP2
73158;SDS011;61370;48.594;10.202;2022-07-22T00:00:31;8.32;;;6.25;;
73158;SDS011;61370;48.594;10.202;2022-07-22T00:03:03;9.30;;;6.28;;
73158;SDS011;61370;48.594;10.202;2022-07-22T00:05:30;9.40;;;6.53;;
73158;SDS011;61370;48.594;10.202;2022-07-22T00:07:56;14.55;;;6.60;;
73158;SDS011;61370;48.594;10.202;2022-07-22T00:10:23;7.95;;;6.25;;
73158;SDS011;61370;48.594;10.202;2022-07-22T00:12:49;8.30;;;6.38;;
73158;SDS011;61370;48.594;10.202;2022-07-22T00:15:15;9.68;;;6.80;;
73158;SDS011;61370;48.594;10.202;2022-07-22T00:17:42;10.50;;;6.43;;
73158;SDS011;61370;48.594;10.202;2022-07-22T00:20:08;8.00;;;6.18;;
73158;SDS011;61370;48.594;10.202;2022-07-22T00:22:35;11.27;;;6.50;;
73158;SDS011;61370;48.594;10.202;2022-07-22T00:25:02;8.30;;;6.10;;
73158;SDS011;61370;48.594;10.202;2022-07-22T00:27:29;9.07;;;6.13;;
73158;SDS011;61370;48.594;10.202;2022-07-22T00:29:55;9.23;;;6.57;;
73158;SDS011;61370;48.594;10.202;2022-07-22T00:32:22;8.10;;;6.40;;
73158;SDS011;61370;48.594;10.202;2022-07-22T00:34:48;8.38;;;6.28;;
73158;SDS011;61370;48.594;10.202;2022-07-22T00:37:15;9.43;;;6.68;;
73158;SDS011;61370;48.594;10.202;2022-07-22T00:39:41;8.07;;;6.18;;
73158;SDS011;61370;48.594;10.202;2022-07-22T00:42:08;10.15;;;6.72;;
73158;SDS011;61370;48.594;10.202;2022-07-22T00:44:34;9.00;;;6.80;;
73158;SDS011;61370;48.594;10.202;2022-07-22T00:47:00;8.45;;;6.88;;
73158;SDS011;61370;48.594;10.202;2022-07-22T00:49:27;9.48;;;6.45;;
73158;SDS011;61370;48.594;10.202;2022-07-22T00:51:54;9.75;;;6.72;;
73158;SDS011;61370;48.594;10.202;2022-07-22T00:54:20;8.13;;;5.55;;
73158;SDS011;61370;48.594;10.202;2022-07-22T00:56:47;9.32;;;6.47;;
73158;SDS011;61370;48.594;10.202;2022-07-22T00:59:13;8.18;;;6.28;;
73158;SDS011;61370;48.594;10.202;2022-07-22T01:01:40;9.40;;;6.93;;
73158;SDS011;61370;48.594;10.202;2022-07-22T01:04:07;9.68;;;5.82;;
73158;SDS011;61370;48.594;10.202;2022-07-22T01:06:34;9.63;;;6.45;;
73158;SDS011;61370;48.594;10.202;2022-07-22T01:09:00;9.02;;;5.97;;
73158;SDS011;61370;48.594;10.202;2022-07-22T01:11:27;8.27;;;5.82;;
73158;SDS011;61370;48.594;10.202;2022-07-22T01:13:54;8.73;;;6.28;;
73158;SDS011;61370;48.594;10.202;2022-07-22T01:16:21;9.63;;;6.18;;
73158;SDS011;61370;48.594;10.202;2022-07-22T01:18:51;7.47;;;5.78;;
73158;SDS011;61370;48.594;10.202;2022-07-22T01:21:17;9.18;;;5.93;;
73158;SDS011;61370;48.594;10.202;2022-07-22T01:23:44;8.38;;;6.38;;
73158;SDS011;61370;48.594;10.202;2022-07-22T01:26:11;8.63;;;6.20;;
73158;SDS011;61370;48.594;10.202;2022-07-22T01:28:38;9.85;;;6.50;;
73158;SDS011;61370;48.594;10.202;2022-07-22T01:31:05;12.82;;;6.03;;
73158;SDS011;61370;48.594;10.202;2022-07-22T01:33:32;8.95;;;6.20;;
73158;SDS011;61370;48.594;10.202;2022-07-22T01:36:00;8.35;;;6.00;;
73158;SDS011;61370;48.594;10.202;2022-07-22T01:38:27;8.75;;;6.05;;
73158;SDS011;61370;48.594;10.202;2022-07-22T01:40:54;9.02;;;6.03;;
73158;SDS011;61370;48.594;10.202;2022-07-22T01:43:20;9.75;;;6.07;;
73158;SDS011;61370;48.594;10.202;2022-07-22T01:45:49;9.27;;;6.82;;
73158;SDS011;61370;48.594;10.202;2022-07-22T01:48:17;10.05;;;5.97;;
73158;SDS011;61370;48.594;10.202;2022-07-22T01:50:44;9.13;;;6.30;;
73158;SDS011;61370;48.594;10.202;2022-07-22T01:53:11;10.80;;;6.38;;
73158;SDS011;61370;48.594;10.202;2022-07-22T01:55:39;8.68;;;6.05;;
73158;SDS011;61370;48.594;10.202;2022-07-22T01:58:05;12.90;;;6.55;;
73158;SDS011;61370;48.594;10.202;2022-07-22T02:00:34;9.93;;;6.22;;
73158;SDS011;61370;48.594;10.202;2022-07-22T02:03:03;8.70;;;6.30;;
73158;SDS011;61370;48.594;10.202;2022-07-22T02:05:31;10.82;;;6.60;;
73158;SDS011;61370;48.594;10.202;2022-07-22T02:08:04;10.13;;;5.60;;
73158;SDS011;61370;48.594;10.202;2022-07-22T02:10:51;8.75;;;6.28;;
73158;SDS011;61370;48.594;10.202;2022-07-22T02:13:17;9.20;;;6.22;;
73158;SDS011;61370;48.594;10.202;2022-07-22T02:15:44;9.55;;;6.57;;
73158;SDS011;61370;48.594;10.202;2022-07-22T02:18:12;9.43;;;6.38;;
73158;SDS011;61370;48.594;10.202;2022-07-22T02:20:41;8.48;;;6.38;;
73158;SDS011;61370;48.594;10.202;2022-07-22T02:23:08;8.40;;;6.13;;
73158;SDS011;61370;48.594;10.202;2022-07-22T02:25:38;11.27;;;7.18;;
73158;SDS011;61370;48.594;10.202;2022-07-22T02:28:05;7.88;;;5.93;;
73158;SDS011;61370;48.594;10.202;2022-07-22T02:30:32;9.57;;;6.25;;
73158;SDS011;61370;48.594;10.202;2022-07-22T02:32:59;9.73;;;6.53;;
73158;SDS011;61370;48.594;10.202;2022-07-22T02:35:25;8.50;;;6.07;;
73158;SDS011;61370;48.594;10.202;2022-07-22T02:37:52;9.73;;;5.90;;
73158;SDS011;61370;48.594;10.202;2022-07-22T02:40:19;11.57;;;6.22;;
73158;SDS011;61370;48.594;10.202;2022-07-22T02:42:45;9.73;;;6.40;;
73158;SDS011;61370;48.594;10.202;2022-07-22T02:45:11;10.15;;;6.53;;
73158;SDS011;61370;48.594;10.202;2022-07-22T02:47:48;8.98;;;5.78;;
73158;SDS011;61370;48.594;10.202;2022-07-22T02:50:16;12.20;;;6.43;;
73158;SDS011;61370;48.594;10.202;2022-07-22T02:52:43;8.75;;;6.20;;
73158;SDS011;61370;48.594;10.202;2022-07-22T02:55:11;8.77;;;6.47;;
73158;SDS011;61370;48.594;10.202;2022-07-22T02:57:37;9.80;;;6.38;;
73158;SDS011;61370;48.594;10.202;2022-07-22T03:00:06;8.77;;;6.15;;
73158;SDS011;61370;48.594;10.202;2022-07-22T03:02:37;10.50;;;6.70;;
73158;SDS011;61370;48.594;10.202;2022-07-22T03:05:04;10.27;;;6.75;;
73158;SDS011;61370;48.594;10.202;2022-07-22T03:07:32;10.32;;;6.30;;
73158;SDS011;61370;48.594;10.202;2022-07-22T03:09:59;12.85;;;7.43;;
73158;SDS011;61370;48.594;10.202;2022-07-22T03:12:25;12.60;;;8.02;;
73158;SDS011;61370;48.594;10.202;2022-07-22T03:14:52;11.10;;;6.65;;
73158;SDS011;61370;48.594;10.202;2022-07-22T03:17:19;11.95;;;6.38;;
73158;SDS011;61370;48.594;10.202;2022-07-22T03:19:45;9.45;;;6.18;;
73158;SDS011;61370;48.594;10.202;2022-07-22T03:22:12;10.85;;;6.53;;
73158;SDS011;61370;48.594;10.202;2022-07-22T03:24:39;11.73;;;6.85;;
73158;SDS011;61370;48.594;10.202;2022-07-22T03:27:06;12.35;;;7.50;;
73158;SDS011;61370;48.594;10.202;2022-07-22T03:29:32;10.60;;;6.55;;
73158;SDS011;61370;48.594;10.202;2022-07-22T03:31:59;9.05;;;5.82;;
73158;SDS011;61370;48.594;10.202;2022-07-22T03:34:38;11.27;;;7.35;;
73158;SDS011;61370;48.594;10.202;2022-07-22T03:37:07;8.13;;;6.15;;
73158;SDS011;61370;48.594;10.202;2022-07-22T03:39:33;8.55;;;6.15;;
73158;SDS011;61370;48.594;10.202;2022-07-22T03:42:00;7.95;;;5.95;;
73158;SDS011;61370;48.594;10.202;2022-07-22T03:44:27;10.27;;;6.63;;
73158;SDS011;61370;48.594;10.202;2022-07-22T03:46:54;9.00;;;6.38;;
73158;SDS011;61370;48.594;10.202;2022-07-22T03:49:21;9.55;;;5.88;;
73158;SDS011;61370;48.594;10.202;2022-07-22T03:51:47;11.18;;;6.95;;
73158;SDS011;61370;48.594;10.202;2022-07-22T03:54:13;11.95;;;6.93;;
73158;SDS011;61370;48.594;10.202;2022-07-22T03:56:42;10.43;;;6.32;;
73158;SDS011;61370;48.594;10.202;2022-07-22T03:59:09;10.77;;;6.28;;
73158;SDS011;61370;48.594;10.202;2022-07-22T04:01:35;9.63;;;6.43;;
73158;SDS011;61370;48.594;10.202;2022-07-22T04:04:02;10.82;;;6.50;;
73158;SDS011;61370;48.594;10.202;2022-07-22T04:06:32;9.85;;;5.97;;
73158;SDS011;61370;48.594;10.202;2022-07-22T04:09:06;9.27;;;6.35;;
73158;SDS011;61370;48.594;10.202;2022-07-22T04:11:34;8.70;;;5.90;;
73158;SDS011;61370;48.594;10.202;2022-07-22T04:14:01;9.30;;;6.15;;
73158;SDS011;61370;48.594;10.202;2022-07-22T04:16:27;9.75;;;6.25;;
73158;SDS011;61370;48.594;10.202;2022-07-22T04:18:59;10.60;;;6.78;;
73158;SDS011;61370;48.594;10.202;2022-07-22T04:21:41;9.73;;;6.00;;
73158;SDS011;61370;48.594;10.202;2022-07-22T04:24:10;9.65;;;6.30;;
73158;SDS011;61370;48.594;10.202;2022-07-22T04:26:37;10.35;;;6.45;;
73158;SDS011;61370;48.594;10.202;2022-07-22T04:29:04;9.10;;;6.00;;
73158;SDS011;61370;48.594;10.202;2022-07-22T04:31:30;7.55;;;5.53;;
73158;SDS011;61370;48.594;10.202;2022-07-22T04:34:04;10.02;;;6.10;;
73158;SDS011;61370;48.594;10.202;2022-07-22T04:36:31;7.97;;;6.13;;
73158;SDS011;61370;48.594;10.202;2022-07-22T04:38:59;9.93;;;6.43;;
73158;SDS011;61370;48.594;10.202;2022-07-22T04:41:25;7.93;;;5.65;;
73158;SDS011;61370;48.594;10.202;2022-07-22T04:43:52;8.98;;;6.05;;
73158;SDS011;61370;48.594;10.202;2022-07-22T04:46:22;9.32;;;6.13;;
73158;SDS011;61370;48.594;10.202;2022-07-22T04:48:48;12.85;;;6.28;;
73158;SDS011;61370;48.594;10.202;2022-07-22T04:51:15;9.07;;;6.25;;
73158;SDS011;61370;48.594;10.202;2022-07-22T04:53:44;9.32;;;6.50;;
73158;SDS011;61370;48.594;10.202;2022-07-22T04:56:12;8.50;;;5.72;;
73158;SDS011;61370;48.594;10.202;2022-07-22T04:58:39;8.23;;;5.88;;
73158;SDS011;61370;48.594;10.202;2022-07-22T05:01:06;8.20;;;5.60;;
73158;SDS011;61370;48.594;10.202;2022-07-22T05:03:32;10.15;;;6.03;;
73158;SDS011;61370;48.594;10.202;2022-07-22T05:06:00;8.43;;;6.38;;
73158;SDS011;61370;48.594;10.202;2022-07-22T05:08:33;10.40;;;5.55;;
73158;SDS011;61370;48.594;10.202;2022-07-22T05:10:59;8.40;;;6.35;;
73158;SDS011;61370;48.594;10.202;2022-07-22T05:13:26;7.85;;;5.72;;
73158;SDS011;61370;48.594;10.202;2022-07-22T05:15:52;10.27;;;5.63;;
73158;SDS011;61370;48.594;10.202;2022-07-22T05:18:19;8.43;;;5.78;;
73158;SDS011;61370;48.594;10.202;2022-07-22T05:20:45;8.98;;;5.75;;
73158;SDS011;61370;48.594;10.202;2022-07-22T05:23:12;7.18;;;5.60;;
73158;SDS011;61370;48.594;10.202;2022-07-22T05:25:39;8.75;;;5.43;;
73158;SDS011;61370;48.594;10.202;2022-07-22T05:28:06;6.80;;;5.18;;
73158;SDS011;61370;48.594;10.202;2022-07-22T05:30:36;8.48;;;6.18;;
73158;SDS011;61370;48.594;10.202;2022-07-22T05:33:04;8.98;;;5.47;;
73158;SDS011;61370;48.594;10.202;2022-07-22T05:35:57;8.38;;;5.68;;
73158;SDS011;61370;48.594;10.202;2022-07-22T05:38:31;8.65;;;5.90;;
73158;SDS011;61370;48.594;10.202;2022-07-22T05:40:59;10.23;;;6.55;;
73158;SDS011;61370;48.594;10.202;2022-07-22T05:43:25;11.27;;;6.70;;
73158;SDS011;61370;48.594;10.202;2022-07-22T05:45:53;8.95;;;6.40;;
73158;SDS011;61370;48.594;10.202;2022-07-22T05:48:21;8.88;;;6.43;;
73158;SDS011;61370;48.594;10.202;2022-07-22T05:50:49;10.50;;;6.53;;
73158;SDS011;61370;48.594;10.202;2022-07-22T05:53:16;8.95;;;6.15;;
73158;SDS011;61370;48.594;10.202;2022-07-22T05:55:43;9.48;;;7.07;;
73158;SDS011;61370;48.594;10.202;2022-07-22T05:58:09;14.10;;;6.53;;
73158;SDS011;61370;48.594;10.202;2022-07-22T06:00:36;8.88;;;6.20;;
73158;SDS011;61370;48.594;10.202;2022-07-22T06:03:02;10.30;;;7.03;;
73158;SDS011;61370;48.594;10.202;2022-07-22T06:05:30;10.95;;;6.70;;
73158;SDS011;61370;48.594;10.202;2022-07-22T06:08:01;9.10;;;6.20;;
73158;SDS011;61370;48.594;10.202;2022-07-22T06:10:42;12.57;;;7.03;;
73158;SDS011;61370;48.594;10.202;2022-07-22T06:13:09;8.32;;;6.47;;
73158;SDS011;61370;48.594;10.202;2022-07-22T06:15:37;9.23;;;6.88;;
73158;SDS011;61370;48.594;10.202;2022-07-22T06:18:11;11.95;;;7.20;;
73158;SDS011;61370;48.594;10.202;2022-07-22T06:20:40;8.88;;;6.80;;
73158;SDS011;61370;48.594;10.202;2022-07-22T06:23:09;10.05;;;6.68;;
73158;SDS011;61370;48.594;10.202;2022-07-22T06:25:36;9.70;;;7.50;;
73158;SDS011;61370;48.594;10.202;2022-07-22T06:28:03;10.82;;;7.15;;
73158;SDS011;61370;48.594;10.202;2022-07-22T06:30:32;9.35;;;6.35;;
73158;SDS011;61370;48.594;10.202;2022-07-22T06:33:01;9.18;;;5.80;;
73158;SDS011;61370;48.594;10.202;2022-07-22T06:37:58;11.80;;;6.50;;
73158;SDS011;61370;48.594;10.202;2022-07-22T06:40:26;11.27;;;6.40;;
73158;SDS011;61370;48.594;10.202;2022-07-22T06:43:03;8.45;;;6.20;;
73158;SDS011;61370;48.594;10.202;2022-07-22T06:45:54;10.23;;;6.60;;
73158;SDS011;61370;48.594;10.202;2022-07-22T06:48:40;9.10;;;6.82;;
73158;SDS011;61370;48.594;10.202;2022-07-22T06:51:06;10.55;;;7.45;;
73158;SDS011;61370;48.594;10.202;2022-07-22T06:53:34;8.73;;;6.13;;
73158;SDS011;61370;48.594;10.202;2022-07-22T06:56:01;9.38;;;6.93;;
73158;SDS011;61370;48.594;10.202;2022-07-22T06:58:28;9.70;;;6.30;;
73158;SDS011;61370;48.594;10.202;2022-07-22T07:00:56;11.05;;;6.30;;
73158;SDS011;61370;48.594;10.202;2022-07-22T07:03:33;7.80;;;6.57;;
73158;SDS011;61370;48.594;10.202;2022-07-22T07:06:03;12.55;;;6.63;;
73158;SDS011;61370;48.594;10.202;2022-07-22T07:08:52;11.13;;;6.68;;
73158;SDS011;61370;48.594;10.202;2022-07-22T07:11:18;7.93;;;6.65;;
73158;SDS011;61370;48.594;10.202;2022-07-22T07:13:45;10.93;;;7.43;;
73158;SDS011;61370;48.594;10.202;2022-07-22T07:16:11;8.75;;;6.55;;
73158;SDS011;61370;48.594;10.202;2022-07-22T07:18:38;9.00;;;7.22;;
73158;SDS011;61370;48.594;10.202;2022-07-22T07:21:10;9.18;;;6.40;;
73158;SDS011;61370;48.594;10.202;2022-07-22T07:23:40;9.13;;;6.95;;
73158;SDS011;61370;48.594;10.202;2022-07-22T07:26:06;8.27;;;5.93;;
73158;SDS011;61370;48.594;10.202;2022-07-22T07:28:33;8.23;;;6.60;;
73158;SDS011;61370;48.594;10.202;2022-07-22T07:31:08;8.05;;;6.22;;
73158;SDS011;61370;48.594;10.202;2022-07-22T07:33:36;9.75;;;6.40;;
73158;SDS011;61370;48.594;10.202;2022-07-22T07:36:02;7.78;;;6.40;;
73158;SDS011;61370;48.594;10.202;2022-07-22T07:38:40;9.02;;;6.60;;
73158;SDS011;61370;48.594;10.202;2022-07-22T07:41:12;7.95;;;6.00;;
73158;SDS011;61370;48.594;10.202;2022-07-22T07:43:40;7.63;;;6.80;;
73158;SDS011;61370;48.594;10.202;2022-07-22T07:46:07;8.75;;;6.43;;
73158;SDS011;61370;48.594;10.202;2022-07-22T07:48:34;8.23;;;5.85;;
73158;SDS011;61370;48.594;10.202;2022-07-22T07:51:01;8.10;;;6.22;;
73158;SDS011;61370;48.594;10.202;2022-07-22T07:53:28;11.52;;;6.75;;
73158;SDS011;61370;48.594;10.202;2022-07-22T07:55:54;8.18;;;6.15;;
73158;SDS011;61370;48.594;10.202;2022-07-22T07:58:22;8.82;;;6.57;;
73158;SDS011;61370;48.594;10.202;2022-07-22T08:00:49;8.57;;;6.45;;
73158;SDS011;61370;48.594;10.202;2022-07-22T08:03:16;8.05;;;6.70;;
73158;SDS011;61370;48.594;10.202;2022-07-22T08:05:43;9.60;;;6.20;;
73158;SDS011;61370;48.594;10.202;2022-07-22T08:08:15;7.47;;;6.32;;
73158;SDS011;61370;48.594;10.202;2022-07-22T08:10:43;6.88;;;5.80;;
73158;SDS011;61370;48.594;10.202;2022-07-22T08:13:38;9.13;;;6.70;;
73158;SDS011;61370;48.594;10.202;2022-07-22T08:16:34;9.20;;;5.85;;
73158;SDS011;61370;48.594;10.202;2022-07-22T08:19:01;6.90;;;6.20;;
73158;SDS011;61370;48.594;10.202;2022-07-22T08:21:28;8.43;;;5.97;;
73158;SDS011;61370;48.594;10.202;2022-07-22T08:23:58;8.75;;;5.53;;
73158;SDS011;61370;48.594;10.202;2022-07-22T08:26:25;6.80;;;5.90;;
73158;SDS011;61370;48.594;10.202;2022-07-22T08:28:52;7.88;;;6.07;;
73158;SDS011;61370;48.594;10.202;2022-07-22T08:31:19;8.95;;;6.25;;
73158;SDS011;61370;48.594;10.202;2022-07-22T08:33:47;8.57;;;5.70;;
73158;SDS011;61370;48.594;10.202;2022-07-22T08:36:13;8.13;;;5.88;;
73158;SDS011;61370;48.594;10.202;2022-07-22T08:38:40;7.18;;;5.55;;
73158;SDS011;61370;48.594;10.202;2022-07-22T08:41:07;7.28;;;6.03;;
73158;SDS011;61370;48.594;10.202;2022-07-22T08:43:34;11.38;;;6.40;;
73158;SDS011;61370;48.594;10.202;2022-07-22T08:46:02;8.35;;;6.05;;
73158;SDS011;61370;48.594;10.202;2022-07-22T08:48:35;9.27;;;5.88;;
73158;SDS011;61370;48.594;10.202;2022-07-22T08:51:22;9.25;;;5.47;;
73158;SDS011;61370;48.594;10.202;2022-07-22T08:54:14;8.15;;;5.85;;
73158;SDS011;61370;48.594;10.202;2022-07-22T08:56:41;6.53;;;5.82;;
73158;SDS011;61370;48.594;10.202;2022-07-22T08:59:08;6.88;;;5.68;;
73158;SDS011;61370;48.594;10.202;2022-07-22T09:01:35;6.90;;;5.43;;
73158;SDS011;61370;48.594;10.202;2022-07-22T09:04:01;7.13;;;5.47;;
73158;SDS011;61370;48.594;10.202;2022-07-22T09:06:34;6.85;;;5.82;;
73158;SDS011;61370;48.594;10.202;2022-07-22T09:09:05;7.15;;;5.60;;
73158;SDS011;61370;48.594;10.202;2022-07-22T09:11:51;7.38;;;5.05;;
73158;SDS011;61370;48.594;10.202;2022-07-22T09:14:46;5.93;;;5.30;;
73158;SDS011;61370;48.594;10.202;2022-07-22T09:17:36;6.40;;;5.15;;
73158;SDS011;61370;48.594;10.202;2022-07-22T09:20:42;6.45;;;4.57;;
73158;SDS011;61370;48.594;10.202;2022-07-22T09:23:39;9.50;;;4.95;;
73158;SDS011;61370;48.594;10.202;2022-07-22T09:26:08;9.07;;;4.82;;
73158;SDS011;61370;48.594;10.202;2022-07-22T09:28:53;7.43;;;4.88;;
73158;SDS011;61370;48.594;10.202;2022-07-22T09:31:31;7.60;;;4.93;;
73158;SDS011;61370;48.594;10.202;2022-07-22T09:34:32;8.02;;;5.90;;
73158;SDS011;61370;48.594;10.202;2022-07-22T09:37:11;7.00;;;5.65;;
73158;SDS011;61370;48.594;10.202;2022-07-22T09:39:38;6.32;;;5.18;;
73158;SDS011;61370;48.594;10.202;2022-07-22T09:42:05;8.55;;;6.03;;
73158;SDS011;61370;48.594;10.202;2022-07-22T09:44:33;7.70;;;5.75;;
73158;SDS011;61370;48.594;10.202;2022-07-22T09:47:29;6.78;;;5.60;;
73158;SDS011;61370;48.594;10.202;2022-07-22T09:50:29;8.23;;;5.75;;
73158;SDS011;61370;48.594;10.202;2022-07-22T09:53:18;8.18;;;5.35;;
73158;SDS011;61370;48.594;10.202;2022-07-22T09:55:56;9.23;;;6.70;;
73158;SDS011;61370;48.594;10.202;2022-07-22T09:58:24;8.13;;;6.50;;
73158;SDS011;61370;48.594;10.202;2022-07-22T10:00:52;6.70;;;5.15;;
73158;SDS011;61370;48.594;10.202;2022-07-22T10:05:50;7.32;;;6.10;;
73158;SDS011;61370;48.594;10.202;2022-07-22T10:08:17;7.68;;;5.38;;
73158;SDS011;61370;48.594;10.202;2022-07-22T10:10:44;8.38;;;5.63;;
73158;SDS011;61370;48.594;10.202;2022-07-22T10:13:10;6.57;;;4.78;;
73158;SDS011;61370;48.594;10.202;2022-07-22T10:15:37;7.43;;;5.10;;
73158;SDS011;61370;48.594;10.202;2022-07-22T10:18:06;8.05;;;5.13;;
73158;SDS011;61370;48.594;10.202;2022-07-22T10:20:35;9.50;;;5.70;;
73158;SDS011;61370;48.594;10.202;2022-07-22T10:23:06;6.22;;;5.40;;
73158;SDS011;61370;48.594;10.202;2022-07-22T10:33:44;6.75;;;5.40;;
73158;SDS011;61370;48.594;10.202;2022-07-22T10:36:11;8.38;;;5.45;;
73158;SDS011;61370;48.594;10.202;2022-07-22T10:38:44;7.85;;;5.15;;
73158;SDS011;61370;48.594;10.202;2022-07-22T10:41:34;7.38;;;5.40;;
73158;SDS011;61370;48.594;10.202;2022-07-22T10:44:02;7.90;;;5.50;;
73158;SDS011;61370;48.594;10.202;2022-07-22T10:49:16;9.43;;;5.30;;
73158;SDS011;61370;48.594;10.202;2022-07-22T10:57:45;7.47;;;5.45;;
73158;SDS011;61370;48.594;10.202;2022-07-22T11:00:14;7.85;;;5.18;;
73158;SDS011;61370;48.594;10.202;2022-07-22T11:02:43;6.38;;;5.05;;
73158;SDS011;61370;48.594;10.202;2022-07-22T11:05:27;7.78;;;4.20;;
73158;SDS011;61370;48.594;10.202;2022-07-22T11:07:56;9.18;;;5.18;;
73158;SDS011;61370;48.594;10.202;2022-07-22T11:10:24;8.02;;;4.88;;
73158;SDS011;61370;48.594;10.202;2022-07-22T11:12:52;7.63;;;4.88;;
73158;SDS011;61370;48.594;10.202;2022-07-22T11:15:19;7.93;;;5.68;;
73158;SDS011;61370;48.594;10.202;2022-07-22T11:17:51;6.85;;;4.97;;
73158;SDS011;61370;48.594;10.202;2022-07-22T11:20:22;7.07;;;4.55;;
73158;SDS011;61370;48.594;10.202;2022-07-22T11:22:48;7.45;;;4.55;;
73158;SDS011;61370;48.594;10.202;2022-07-22T11:25:15;7.75;;;4.85;;
73158;SDS011;61370;48.594;10.202;2022-07-22T11:27:49;7.40;;;4.38;;
73158;SDS011;61370;48.594;10.202;2022-07-22T11:30:16;5.85;;;4.60;;
73158;SDS011;61370;48.594;10.202;2022-07-22T11:32:43;6.43;;;4.75;;
73158;SDS011;61370;48.594;10.202;2022-07-22T11:35:11;6.53;;;4.43;;
73158;SDS011;61370;48.594;10.202;2022-07-22T11:37:38;8.82;;;4.90;;
73158;SDS011;61370;48.594;10.202;2022-07-22T11:40:05;8.50;;;4.97;;
73158;SDS011;61370;48.594;10.202;2022-07-22T11:42:33;6.63;;;4.63;;
73158;SDS011;61370;48.594;10.202;2022-07-22T11:44:59;6.85;;;4.80;;
73158;SDS011;61370;48.594;10.202;2022-07-22T11:47:26;7.28;;;4.90;;
73158;SDS011;61370;48.594;10.202;2022-07-22T11:49:52;9.30;;;4.50;;
73158;SDS011;61370;48.594;10.202;2022-07-22T11:52:19;5.43;;;4.38;;
73158;SDS011;61370;48.594;10.202;2022-07-22T11:54:45;6.00;;;4.72;;
73158;SDS011;61370;48.594;10.202;2022-07-22T11:57:12;6.70;;;4.32;;
73158;SDS011;61370;48.594;10.202;2022-07-22T11:59:40;7.00;;;4.95;;
73158;SDS011;61370;48.594;10.202;2022-07-22T12:02:07;7.53;;;4.68;;
73158;SDS011;61370;48.594;10.202;2022-07-22T12:04:35;6.88;;;5.13;;
73158;SDS011;61370;48.594;10.202;2022-07-22T12:07:02;6.07;;;4.35;;
73158;SDS011;61370;48.594;10.202;2022-07-22T12:09:36;6.00;;;4.80;;
73158;SDS011;61370;48.594;10.202;2022-07-22T12:12:04;5.90;;;4.20;;
73158;SDS011;61370;48.594;10.202;2022-07-22T12:14:31;6.35;;;4.72;;
73158;SDS011;61370;48.594;10.202;2022-07-22T12:17:06;6.45;;;4.63;;
73158;SDS011;61370;48.594;10.202;2022-07-22T12:19:36;7.07;;;4.80;;
73158;SDS011;61370;48.594;10.202;2022-07-22T12:22:11;7.80;;;4.45;;
73158;SDS011;61370;48.594;10.202;2022-07-22T12:24:41;6.32;;;4.28;;
73158;SDS011;61370;48.594;10.202;2022-07-22T12:27:12;7.68;;;5.28;;
73158;SDS011;61370;48.594;10.202;2022-07-22T12:29:44;7.63;;;4.25;;
73158;SDS011;61370;48.594;10.202;2022-07-22T12:32:15;6.78;;;4.28;;
73158;SDS011;61370;48.594;10.202;2022-07-22T12:34:45;8.15;;;4.20;;
73158;SDS011;61370;48.594;10.202;2022-07-22T12:39:58;5.65;;;4.30;;
73158;SDS011;61370;48.594;10.202;2022-07-22T12:42:26;7.90;;;4.38;;
73158;SDS011;61370;48.594;10.202;2022-07-22T12:45:06;5.55;;;4.07;;
73158;SDS011;61370;48.594;10.202;2022-07-22T12:47:50;6.13;;;4.68;;
73158;SDS011;61370;48.594;10.202;2022-07-22T12:52:51;8.20;;;4.18;;
73158;SDS011;61370;48.594;10.202;2022-07-22T12:55:19;8.63;;;4.45;;
73158;SDS011;61370;48.594;10.202;2022-07-22T12:57:46;7.13;;;5.03;;
73158;SDS011;61370;48.594;10.202;2022-07-22T13:00:16;7.53;;;4.47;;
73158;SDS011;61370;48.594;10.202;2022-07-22T13:02:44;7.72;;;5.47;;
73158;SDS011;61370;48.594;10.202;2022-07-22T13:05:11;5.70;;;4.25;;
73158;SDS011;61370;48.594;10.202;2022-07-22T13:07:37;7.38;;;4.30;;
73158;SDS011;61370;48.594;10.202;2022-07-22T13:10:04;7.93;;;4.70;;
73158;SDS011;61370;48.594;10.202;2022-07-22T13:12:31;6.65;;;4.75;;
73158;SDS011;61370;48.594;10.202;2022-07-22T13:14:58;6.75;;;4.20;;
73158;SDS011;61370;48.594;10.202;2022-07-22T13:17:24;6.38;;;3.80;;
73158;SDS011;61370;48.594;10.202;2022-07-22T13:19:51;9.02;;;4.88;;
73158;SDS011;61370;48.594;10.202;2022-07-22T13:22:18;5.75;;;4.30;;
73158;SDS011;61370;48.594;10.202;2022-07-22T13:24:44;5.60;;;4.05;;
73158;SDS011;61370;48.594;10.202;2022-07-22T13:27:10;6.22;;;4.55;;
73158;SDS011;61370;48.594;10.202;2022-07-22T13:29:37;8.05;;;4.38;;
73158;SDS011;61370;48.594;10.202;2022-07-22T13:32:04;7.18;;;3.85;;
73158;SDS011;61370;48.594;10.202;2022-07-22T13:34:31;7.53;;;4.22;;
73158;SDS011;61370;48.594;10.202;2022-07-22T13:36:58;6.25;;;4.20;;
73158;SDS011;61370;48.594;10.202;2022-07-22T13:39:24;6.30;;;4.32;;
73158;SDS011;61370;48.594;10.202;2022-07-22T13:41:51;5.82;;;4.22;;
73158;SDS011;61370;48.594;10.202;2022-07-22T13:44:17;6.38;;;3.90;;
73158;SDS011;61370;48.594;10.202;2022-07-22T13:46:43;5.70;;;3.75;;
73158;SDS011;61370;48.594;10.202;2022-07-22T13:49:10;5.43;;;3.85;;
73158;SDS011;61370;48.594;10.202;2022-07-22T13:51:37;5.50;;;4.15;;
73158;SDS011;61370;48.594;10.202;2022-07-22T13:54:03;5.93;;;4.43;;
73158;SDS011;61370;48.594;10.202;2022-07-22T13:56:31;6.75;;;4.80;;
73158;SDS011;61370;48.594;10.202;2022-07-22T13:58:58;6.70;;;4.40;;
73158;SDS011;61370;48.594;10.202;2022-07-22T14:01:25;6.05;;;4.40;;
73158;SDS011;61370;48.594;10.202;2022-07-22T14:03:51;6.03;;;4.70;;
73158;SDS011;61370;48.594;10.202;2022-07-22T14:06:18;6.75;;;4.45;;
73158;SDS011;61370;48.594;10.202;2022-07-22T14:08:45;6.53;;;4.70;;
73158;SDS011;61370;48.594;10.202;2022-07-22T14:11:11;8.52;;;4.97;;
73158;SDS011;61370;48.594;10.202;2022-07-22T14:13:37;6.25;;;4.53;;
73158;SDS011;61370;48.594;10.202;2022-07-22T14:16:04;6.63;;;4.40;;
73158;SDS011;61370;48.594;10.202;2022-07-22T14:18:50;6.88;;;4.13;;
73158;SDS011;61370;48.594;10.202;2022-07-22T14:21:16;6.30;;;4.60;;
73158;SDS011;61370;48.594;10.202;2022-07-22T14:23:42;6.53;;;4.80;;
73158;SDS011;61370;48.594;10.202;2022-07-22T14:26:11;5.53;;;4.32;;
73158;SDS011;61370;48.594;10.202;2022-07-22T14:28:37;6.55;;;4.75;;
73158;SDS011;61370;48.594;10.202;2022-07-22T14:31:04;6.53;;;4.70;;
73158;SDS011;61370;48.594;10.202;2022-07-22T14:33:31;6.20;;;4.25;;
73158;SDS011;61370;48.594;10.202;2022-07-22T14:35:57;5.57;;;4.25;;
73158;SDS011;61370;48.594;10.202;2022-07-22T14:38:24;8.60;;;4.90;;
73158;SDS011;61370;48.594;10.202;2022-07-22T14:40:50;7.10;;;4.68;;
73158;SDS011;61370;48.594;10.202;2022-07-22T14:48:12;6.45;;;4.30;;
73158;SDS011;61370;48.594;10.202;2022-07-22T14:50:39;7.47;;;4.40;;
73158;SDS011;61370;48.594;10.202;2022-07-22T14:53:05;5.93;;;4.60;;
73158;SDS011;61370;48.594;10.202;2022-07-22T14:55:32;6.50;;;4.50;;
73158;SDS011;61370;48.594;10.202;2022-07-22T14:57:58;5.97;;;4.30;;
73158;SDS011;61370;48.594;10.202;2022-07-22T15:00:24;7.15;;;4.85;;
73158;SDS011;61370;48.594;10.202;2022-07-22T15:02:51;9.43;;;5.00;;
73158;SDS011;61370;48.594;10.202;2022-07-22T15:05:17;6.65;;;5.07;;
73158;SDS011;61370;48.594;10.202;2022-07-22T15:07:44;6.22;;;4.22;;
73158;SDS011;61370;48.594;10.202;2022-07-22T15:10:11;5.75;;;4.45;;
73158;SDS011;61370;48.594;10.202;2022-07-22T15:12:37;7.72;;;4.65;;
73158;SDS011;61370;48.594;10.202;2022-07-22T15:15:05;7.10;;;4.20;;
73158;SDS011;61370;48.594;10.202;2022-07-22T15:17:33;6.50;;;4.53;;